sensor_id;sensor_type;location;lat;lon;timestamp;P1;durP1;ratioP1;P2;durP2;ratioP2
18576;SDS011;9418;52.694;13.294;2023-05-10T00:02:20;6.53;;;4.87;;
18576;SDS011;9418;52.694;13.294;2023-05-10T00:04:47;6.97;;;4.50;;
18576;SDS011;9418;52.694;13.294;2023-05-10T00:07:14;11.40;;;5.07;;
18576;SDS011;9418;52.694;13.294;2023-05-10T00:09:42;6.10;;;4.37;;
18576;SDS011;9418;52.694;13.294;2023-05-10T00:12:08;5.63;;;4.77;;
18576;SDS011;9418;52.694;13.294;2023-05-10T00:14:36;5.13;;;4.40;;
18576;SDS011;9418;52.694;13.294;2023-05-10T00:17:03;5.30;;;4.80;;
18576;SDS011;9418;52.694;13.294;2023-05-10T00:19:29;9.83;;;5.43;;
18576;SDS011;9418;52.694;13.294;2023-05-10T00:21:56;8.70;;;5.30;;
18576;SDS011;9418;52.694;13.294;2023-05-10T00:24:22;6.13;;;4.83;;
18576;SDS011;9418;52.694;13.294;2023-05-10T00:26:49;6.53;;;4.67;;
18576;SDS011;9418;52.694;13.294;2023-05-10T00:29:15;8.63;;;4.93;;
18576;SDS011;9418;52.694;13.294;2023-05-10T00:31:43;14.50;;;5.10;;
18576;SDS011;9418;52.694;13.294;2023-05-10T00:34:10;5.83;;;5.23;;
18576;SDS011;9418;52.694;13.294;2023-05-10T00:36:36;6.47;;;4.77;;
18576;SDS011;9418;52.694;13.294;2023-05-10T00:39:03;6.60;;;4.97;;
18576;SDS011;9418;52.694;13.294;2023-05-10T00:41:30;8.40;;;4.90;;
18576;SDS011;9418;52.694;13.294;2023-05-10T00:43:57;9.30;;;6.53;;
18576;SDS011;9418;52.694;13.294;2023-05-10T00:46:24;9.20;;;5.87;;
18576;SDS011;9418;52.694;13.294;2023-05-10T00:48:53;7.50;;;5.00;;
18576;SDS011;9418;52.694;13.294;2023-05-10T00:51:20;5.73;;;4.83;;
18576;SDS011;9418;52.694;13.294;2023-05-10T00:53:46;8.10;;;4.77;;
18576;SDS011;9418;52.694;13.294;2023-05-10T00:56:14;7.73;;;5.50;;
18576;SDS011;9418;52.694;13.294;2023-05-10T00:58:41;5.80;;;4.90;;
18576;SDS011;9418;52.694;13.294;2023-05-10T01:01:08;6.77;;;5.10;;
18576;SDS011;9418;52.694;13.294;2023-05-10T01:03:36;9.17;;;5.10;;
18576;SDS011;9418;52.694;13.294;2023-05-10T01:06:04;13.93;;;5.93;;
18576;SDS011;9418;52.694;13.294;2023-05-10T01:08:31;6.50;;;5.20;;
18576;SDS011;9418;52.694;13.294;2023-05-10T01:10:58;8.07;;;5.70;;
18576;SDS011;9418;52.694;13.294;2023-05-10T01:13:29;5.57;;;4.50;;
18576;SDS011;9418;52.694;13.294;2023-05-10T01:15:58;5.87;;;5.37;;
18576;SDS011;9418;52.694;13.294;2023-05-10T01:18:26;7.83;;;5.17;;
18576;SDS011;9418;52.694;13.294;2023-05-10T01:20:57;6.53;;;5.80;;
18576;SDS011;9418;52.694;13.294;2023-05-10T01:23:49;8.20;;;5.77;;
18576;SDS011;9418;52.694;13.294;2023-05-10T01:26:39;7.50;;;4.63;;
18576;SDS011;9418;52.694;13.294;2023-05-10T01:29:42;6.57;;;5.03;;
18576;SDS011;9418;52.694;13.294;2023-05-10T01:32:36;7.47;;;6.00;;
18576;SDS011;9418;52.694;13.294;2023-05-10T01:35:10;6.73;;;5.57;;
18576;SDS011;9418;52.694;13.294;2023-05-10T01:37:43;6.50;;;5.43;;
18576;SDS011;9418;52.694;13.294;2023-05-10T01:40:15;8.33;;;6.27;;
18576;SDS011;9418;52.694;13.294;2023-05-10T01:42:46;15.30;;;5.53;;
18576;SDS011;9418;52.694;13.294;2023-05-10T01:45:18;6.50;;;5.90;;
18576;SDS011;9418;52.694;13.294;2023-05-10T01:47:53;11.43;;;6.03;;
18576;SDS011;9418;52.694;13.294;2023-05-10T01:50:25;6.97;;;6.27;;
18576;SDS011;9418;52.694;13.294;2023-05-10T01:52:55;5.67;;;5.13;;
18576;SDS011;9418;52.694;13.294;2023-05-10T01:55:25;12.13;;;5.30;;
18576;SDS011;9418;52.694;13.294;2023-05-10T01:57:56;14.73;;;6.20;;
18576;SDS011;9418;52.694;13.294;2023-05-10T02:00:29;8.10;;;4.90;;
18576;SDS011;9418;52.694;13.294;2023-05-10T02:02:58;7.03;;;5.10;;
18576;SDS011;9418;52.694;13.294;2023-05-10T02:05:27;5.40;;;4.90;;
18576;SDS011;9418;52.694;13.294;2023-05-10T02:07:55;17.37;;;6.20;;
18576;SDS011;9418;52.694;13.294;2023-05-10T02:10:25;7.53;;;5.30;;
18576;SDS011;9418;52.694;13.294;2023-05-10T02:12:53;7.20;;;5.70;;
18576;SDS011;9418;52.694;13.294;2023-05-10T02:15:23;7.27;;;5.60;;
18576;SDS011;9418;52.694;13.294;2023-05-10T02:17:50;8.30;;;5.20;;
18576;SDS011;9418;52.694;13.294;2023-05-10T02:20:21;7.10;;;5.47;;
18576;SDS011;9418;52.694;13.294;2023-05-10T02:22:50;13.23;;;5.50;;
18576;SDS011;9418;52.694;13.294;2023-05-10T02:25:19;5.80;;;5.30;;
18576;SDS011;9418;52.694;13.294;2023-05-10T02:27:46;6.83;;;5.50;;
18576;SDS011;9418;52.694;13.294;2023-05-10T02:30:14;5.90;;;5.30;;
18576;SDS011;9418;52.694;13.294;2023-05-10T02:32:41;18.57;;;5.73;;
18576;SDS011;9418;52.694;13.294;2023-05-10T02:35:08;13.00;;;5.97;;
18576;SDS011;9418;52.694;13.294;2023-05-10T02:37:38;8.40;;;5.90;;
18576;SDS011;9418;52.694;13.294;2023-05-10T02:40:06;5.37;;;4.87;;
18576;SDS011;9418;52.694;13.294;2023-05-10T02:42:35;6.40;;;5.80;;
18576;SDS011;9418;52.694;13.294;2023-05-10T02:45:04;13.90;;;5.93;;
18576;SDS011;9418;52.694;13.294;2023-05-10T02:47:33;5.83;;;5.23;;
18576;SDS011;9418;52.694;13.294;2023-05-10T02:50:00;7.00;;;5.43;;
18576;SDS011;9418;52.694;13.294;2023-05-10T02:52:28;9.20;;;5.80;;
18576;SDS011;9418;52.694;13.294;2023-05-10T02:55:03;5.53;;;5.03;;
18576;SDS011;9418;52.694;13.294;2023-05-10T02:57:32;5.77;;;5.27;;
18576;SDS011;9418;52.694;13.294;2023-05-10T03:00:00;12.83;;;5.77;;
18576;SDS011;9418;52.694;13.294;2023-05-10T03:02:28;7.33;;;5.93;;
18576;SDS011;9418;52.694;13.294;2023-05-10T03:04:55;6.13;;;5.47;;
18576;SDS011;9418;52.694;13.294;2023-05-10T03:07:22;7.80;;;5.43;;
18576;SDS011;9418;52.694;13.294;2023-05-10T03:09:49;7.20;;;5.70;;
18576;SDS011;9418;52.694;13.294;2023-05-10T03:12:20;11.50;;;5.27;;
18576;SDS011;9418;52.694;13.294;2023-05-10T03:14:53;5.17;;;4.77;;
18576;SDS011;9418;52.694;13.294;2023-05-10T03:17:29;8.93;;;5.80;;
18576;SDS011;9418;52.694;13.294;2023-05-10T03:20:03;5.40;;;4.70;;
18576;SDS011;9418;52.694;13.294;2023-05-10T03:22:34;6.90;;;6.20;;
18576;SDS011;9418;52.694;13.294;2023-05-10T03:25:04;6.50;;;5.63;;
18576;SDS011;9418;52.694;13.294;2023-05-10T03:27:34;5.53;;;4.90;;
18576;SDS011;9418;52.694;13.294;2023-05-10T03:30:05;9.07;;;4.57;;
18576;SDS011;9418;52.694;13.294;2023-05-10T03:32:34;6.60;;;5.17;;
18576;SDS011;9418;52.694;13.294;2023-05-10T03:35:01;8.63;;;5.20;;
18576;SDS011;9418;52.694;13.294;2023-05-10T03:37:32;5.50;;;4.97;;
18576;SDS011;9418;52.694;13.294;2023-05-10T03:39:58;7.23;;;4.60;;
18576;SDS011;9418;52.694;13.294;2023-05-10T03:42:25;12.50;;;4.93;;
18576;SDS011;9418;52.694;13.294;2023-05-10T03:44:53;10.90;;;5.00;;
18576;SDS011;9418;52.694;13.294;2023-05-10T03:47:19;6.37;;;5.73;;
18576;SDS011;9418;52.694;13.294;2023-05-10T03:49:46;5.53;;;5.13;;
18576;SDS011;9418;52.694;13.294;2023-05-10T03:52:12;5.90;;;4.73;;
18576;SDS011;9418;52.694;13.294;2023-05-10T03:54:40;5.57;;;4.83;;
18576;SDS011;9418;52.694;13.294;2023-05-10T03:57:07;6.20;;;4.40;;
18576;SDS011;9418;52.694;13.294;2023-05-10T03:59:34;7.47;;;5.43;;
18576;SDS011;9418;52.694;13.294;2023-05-10T04:02:02;7.73;;;5.17;;
18576;SDS011;9418;52.694;13.294;2023-05-10T04:04:29;14.70;;;4.77;;
18576;SDS011;9418;52.694;13.294;2023-05-10T04:06:55;10.60;;;4.80;;
18576;SDS011;9418;52.694;13.294;2023-05-10T04:09:22;6.67;;;4.70;;
18576;SDS011;9418;52.694;13.294;2023-05-10T04:11:48;6.57;;;5.23;;
18576;SDS011;9418;52.694;13.294;2023-05-10T04:14:15;5.07;;;4.63;;
18576;SDS011;9418;52.694;13.294;2023-05-10T04:16:42;7.60;;;5.00;;
18576;SDS011;9418;52.694;13.294;2023-05-10T04:19:10;8.47;;;4.40;;
18576;SDS011;9418;52.694;13.294;2023-05-10T04:21:36;11.53;;;5.67;;
18576;SDS011;9418;52.694;13.294;2023-05-10T04:24:03;5.10;;;4.63;;
18576;SDS011;9418;52.694;13.294;2023-05-10T04:26:30;7.83;;;5.00;;
18576;SDS011;9418;52.694;13.294;2023-05-10T04:28:57;4.90;;;4.50;;
18576;SDS011;9418;52.694;13.294;2023-05-10T04:31:23;12.53;;;4.97;;
18576;SDS011;9418;52.694;13.294;2023-05-10T04:33:50;7.10;;;4.93;;
18576;SDS011;9418;52.694;13.294;2023-05-10T04:36:18;5.53;;;4.50;;
18576;SDS011;9418;52.694;13.294;2023-05-10T04:38:45;7.20;;;4.60;;
18576;SDS011;9418;52.694;13.294;2023-05-10T04:41:11;4.63;;;4.27;;
18576;SDS011;9418;52.694;13.294;2023-05-10T04:43:38;5.90;;;4.93;;
18576;SDS011;9418;52.694;13.294;2023-05-10T04:46:05;5.50;;;4.83;;
18576;SDS011;9418;52.694;13.294;2023-05-10T04:48:32;4.53;;;4.03;;
18576;SDS011;9418;52.694;13.294;2023-05-10T04:50:58;5.23;;;4.17;;
18576;SDS011;9418;52.694;13.294;2023-05-10T04:53:26;8.30;;;4.43;;
18576;SDS011;9418;52.694;13.294;2023-05-10T04:55:53;10.30;;;4.63;;
18576;SDS011;9418;52.694;13.294;2023-05-10T04:58:19;8.80;;;4.33;;
18576;SDS011;9418;52.694;13.294;2023-05-10T05:00:46;18.13;;;4.27;;
18576;SDS011;9418;52.694;13.294;2023-05-10T05:03:12;6.50;;;4.50;;
18576;SDS011;9418;52.694;13.294;2023-05-10T05:05:39;6.53;;;4.50;;
18576;SDS011;9418;52.694;13.294;2023-05-10T05:08:06;9.40;;;4.60;;
18576;SDS011;9418;52.694;13.294;2023-05-10T05:10:34;4.50;;;3.87;;
18576;SDS011;9418;52.694;13.294;2023-05-10T05:13:00;13.53;;;5.00;;
18576;SDS011;9418;52.694;13.294;2023-05-10T05:15:27;4.83;;;4.40;;
18576;SDS011;9418;52.694;13.294;2023-05-10T05:17:54;5.10;;;4.70;;
18576;SDS011;9418;52.694;13.294;2023-05-10T05:20:21;15.70;;;5.40;;
18576;SDS011;9418;52.694;13.294;2023-05-10T05:22:49;10.13;;;4.43;;
18576;SDS011;9418;52.694;13.294;2023-05-10T05:25:15;10.30;;;4.37;;
18576;SDS011;9418;52.694;13.294;2023-05-10T05:27:43;7.60;;;4.10;;
18576;SDS011;9418;52.694;13.294;2023-05-10T05:30:10;7.80;;;4.00;;
18576;SDS011;9418;52.694;13.294;2023-05-10T05:32:37;4.93;;;4.30;;
18576;SDS011;9418;52.694;13.294;2023-05-10T05:35:04;5.27;;;4.13;;
18576;SDS011;9418;52.694;13.294;2023-05-10T05:37:31;8.83;;;4.23;;
18576;SDS011;9418;52.694;13.294;2023-05-10T05:39:57;5.70;;;3.90;;
18576;SDS011;9418;52.694;13.294;2023-05-10T05:42:26;6.10;;;3.87;;
18576;SDS011;9418;52.694;13.294;2023-05-10T05:44:54;4.70;;;3.60;;
18576;SDS011;9418;52.694;13.294;2023-05-10T05:47:20;4.30;;;3.07;;
18576;SDS011;9418;52.694;13.294;2023-05-10T05:49:47;4.47;;;4.07;;
18576;SDS011;9418;52.694;13.294;2023-05-10T05:52:13;4.53;;;4.17;;
18576;SDS011;9418;52.694;13.294;2023-05-10T05:54:40;3.70;;;3.50;;
18576;SDS011;9418;52.694;13.294;2023-05-10T05:57:06;18.63;;;3.77;;
18576;SDS011;9418;52.694;13.294;2023-05-10T05:59:33;5.80;;;3.50;;
18576;SDS011;9418;52.694;13.294;2023-05-10T06:02:01;6.80;;;2.90;;
18576;SDS011;9418;52.694;13.294;2023-05-10T06:04:28;3.67;;;3.47;;
18576;SDS011;9418;52.694;13.294;2023-05-10T06:06:54;3.60;;;3.30;;
18576;SDS011;9418;52.694;13.294;2023-05-10T06:09:21;3.53;;;3.20;;
18576;SDS011;9418;52.694;13.294;2023-05-10T06:11:49;5.23;;;3.07;;
18576;SDS011;9418;52.694;13.294;2023-05-10T06:14:15;16.03;;;3.77;;
18576;SDS011;9418;52.694;13.294;2023-05-10T06:16:42;5.33;;;3.30;;
18576;SDS011;9418;52.694;13.294;2023-05-10T06:19:10;5.63;;;3.40;;
18576;SDS011;9418;52.694;13.294;2023-05-10T06:21:36;3.40;;;2.90;;
18576;SDS011;9418;52.694;13.294;2023-05-10T06:24:03;6.20;;;3.70;;
18576;SDS011;9418;52.694;13.294;2023-05-10T06:26:31;9.50;;;3.60;;
18576;SDS011;9418;52.694;13.294;2023-05-10T06:28:58;8.17;;;3.07;;
18576;SDS011;9418;52.694;13.294;2023-05-10T06:31:24;3.27;;;3.07;;
18576;SDS011;9418;52.694;13.294;2023-05-10T06:33:51;6.03;;;3.20;;
18576;SDS011;9418;52.694;13.294;2023-05-10T06:36:19;6.47;;;3.40;;
18576;SDS011;9418;52.694;13.294;2023-05-10T06:38:46;4.30;;;2.90;;
18576;SDS011;9418;52.694;13.294;2023-05-10T06:41:13;9.23;;;3.77;;
18576;SDS011;9418;52.694;13.294;2023-05-10T06:43:40;6.50;;;3.20;;
18576;SDS011;9418;52.694;13.294;2023-05-10T06:46:08;5.83;;;3.00;;
18576;SDS011;9418;52.694;13.294;2023-05-10T06:48:34;6.67;;;2.73;;
18576;SDS011;9418;52.694;13.294;2023-05-10T06:51:01;8.93;;;3.20;;
18576;SDS011;9418;52.694;13.294;2023-05-10T06:53:29;5.67;;;2.97;;
18576;SDS011;9418;52.694;13.294;2023-05-10T06:55:55;6.83;;;2.90;;
18576;SDS011;9418;52.694;13.294;2023-05-10T06:58:22;16.33;;;3.17;;
18576;SDS011;9418;52.694;13.294;2023-05-10T07:00:48;8.23;;;3.03;;
18576;SDS011;9418;52.694;13.294;2023-05-10T07:03:15;5.60;;;3.40;;
18576;SDS011;9418;52.694;13.294;2023-05-10T07:05:42;7.80;;;3.30;;
18576;SDS011;9418;52.694;13.294;2023-05-10T07:08:08;3.37;;;2.93;;
18576;SDS011;9418;52.694;13.294;2023-05-10T07:10:36;2.90;;;2.70;;
18576;SDS011;9418;52.694;13.294;2023-05-10T07:13:03;4.13;;;3.00;;
18576;SDS011;9418;52.694;13.294;2023-05-10T07:15:29;4.23;;;2.83;;
18576;SDS011;9418;52.694;13.294;2023-05-10T07:17:56;3.87;;;2.83;;
18576;SDS011;9418;52.694;13.294;2023-05-10T07:20:22;4.30;;;3.00;;
18576;SDS011;9418;52.694;13.294;2023-05-10T07:22:49;3.50;;;3.20;;
18576;SDS011;9418;52.694;13.294;2023-05-10T07:25:15;5.63;;;3.23;;
18576;SDS011;9418;52.694;13.294;2023-05-10T07:27:43;4.63;;;4.17;;
18576;SDS011;9418;52.694;13.294;2023-05-10T07:30:10;13.67;;;2.43;;
18576;SDS011;9418;52.694;13.294;2023-05-10T07:32:38;5.23;;;2.57;;
18576;SDS011;9418;52.694;13.294;2023-05-10T07:35:06;8.87;;;3.20;;
18576;SDS011;9418;52.694;13.294;2023-05-10T07:37:34;4.43;;;2.83;;
18576;SDS011;9418;52.694;13.294;2023-05-10T07:40:00;3.67;;;2.77;;
18576;SDS011;9418;52.694;13.294;2023-05-10T07:42:27;9.70;;;2.80;;
18576;SDS011;9418;52.694;13.294;2023-05-10T07:44:55;5.93;;;2.90;;
18576;SDS011;9418;52.694;13.294;2023-05-10T07:47:21;2.80;;;2.57;;
18576;SDS011;9418;52.694;13.294;2023-05-10T07:49:48;7.63;;;3.00;;
18576;SDS011;9418;52.694;13.294;2023-05-10T07:52:14;4.77;;;2.83;;
18576;SDS011;9418;52.694;13.294;2023-05-10T07:54:41;4.17;;;2.57;;
18576;SDS011;9418;52.694;13.294;2023-05-10T07:57:08;6.00;;;2.83;;
18576;SDS011;9418;52.694;13.294;2023-05-10T07:59:34;4.83;;;2.83;;
18576;SDS011;9418;52.694;13.294;2023-05-10T08:02:02;9.57;;;3.47;;
18576;SDS011;9418;52.694;13.294;2023-05-10T08:04:29;6.27;;;3.13;;
18576;SDS011;9418;52.694;13.294;2023-05-10T08:06:55;9.27;;;2.93;;
18576;SDS011;9418;52.694;13.294;2023-05-10T08:09:22;3.27;;;2.47;;
18576;SDS011;9418;52.694;13.294;2023-05-10T08:11:49;5.50;;;2.43;;
18576;SDS011;9418;52.694;13.294;2023-05-10T08:14:15;4.27;;;3.10;;
18576;SDS011;9418;52.694;13.294;2023-05-10T08:16:42;3.50;;;2.67;;
18576;SDS011;9418;52.694;13.294;2023-05-10T08:19:10;5.20;;;3.27;;
18576;SDS011;9418;52.694;13.294;2023-05-10T08:21:36;5.70;;;3.23;;
18576;SDS011;9418;52.694;13.294;2023-05-10T08:24:03;4.93;;;2.63;;
18576;SDS011;9418;52.694;13.294;2023-05-10T08:26:32;9.50;;;2.40;;
18576;SDS011;9418;52.694;13.294;2023-05-10T08:28:59;10.00;;;3.00;;
18576;SDS011;9418;52.694;13.294;2023-05-10T08:31:26;2.70;;;2.50;;
18576;SDS011;9418;52.694;13.294;2023-05-10T08:33:52;8.87;;;2.80;;
18576;SDS011;9418;52.694;13.294;2023-05-10T08:36:20;5.40;;;3.10;;
18576;SDS011;9418;52.694;13.294;2023-05-10T08:38:49;8.10;;;3.70;;
18576;SDS011;9418;52.694;13.294;2023-05-10T08:41:16;3.77;;;2.90;;
18576;SDS011;9418;52.694;13.294;2023-05-10T08:43:46;2.87;;;2.67;;
18576;SDS011;9418;52.694;13.294;2023-05-10T08:46:13;3.70;;;2.80;;
18576;SDS011;9418;52.694;13.294;2023-05-10T08:48:43;3.57;;;2.50;;
18576;SDS011;9418;52.694;13.294;2023-05-10T08:51:11;3.10;;;2.80;;
18576;SDS011;9418;52.694;13.294;2023-05-10T08:53:42;5.43;;;2.80;;
18576;SDS011;9418;52.694;13.294;2023-05-10T08:56:10;6.20;;;3.30;;
18576;SDS011;9418;52.694;13.294;2023-05-10T08:58:36;6.90;;;3.47;;
18576;SDS011;9418;52.694;13.294;2023-05-10T09:01:03;4.93;;;3.00;;
18576;SDS011;9418;52.694;13.294;2023-05-10T09:03:31;3.13;;;2.93;;
18576;SDS011;9418;52.694;13.294;2023-05-10T09:05:58;3.17;;;2.80;;
18576;SDS011;9418;52.694;13.294;2023-05-10T09:08:25;3.07;;;2.83;;
18576;SDS011;9418;52.694;13.294;2023-05-10T09:10:53;3.20;;;2.80;;
18576;SDS011;9418;52.694;13.294;2023-05-10T09:13:21;3.20;;;2.70;;
18576;SDS011;9418;52.694;13.294;2023-05-10T09:15:49;18.67;;;4.20;;
18576;SDS011;9418;52.694;13.294;2023-05-10T09:18:16;3.23;;;2.77;;
18576;SDS011;9418;52.694;13.294;2023-05-10T09:20:43;8.30;;;2.63;;
18576;SDS011;9418;52.694;13.294;2023-05-10T09:23:09;4.30;;;3.10;;
18576;SDS011;9418;52.694;13.294;2023-05-10T09:25:36;2.93;;;2.73;;
18576;SDS011;9418;52.694;13.294;2023-05-10T09:28:06;3.10;;;2.80;;
18576;SDS011;9418;52.694;13.294;2023-05-10T09:30:34;2.80;;;2.33;;
18576;SDS011;9418;52.694;13.294;2023-05-10T09:33:01;4.13;;;2.20;;
18576;SDS011;9418;52.694;13.294;2023-05-10T09:35:29;4.80;;;2.37;;
18576;SDS011;9418;52.694;13.294;2023-05-10T09:37:59;4.20;;;2.93;;
18576;SDS011;9418;52.694;13.294;2023-05-10T09:40:29;2.27;;;2.17;;
18576;SDS011;9418;52.694;13.294;2023-05-10T09:42:56;6.30;;;2.73;;
18576;SDS011;9418;52.694;13.294;2023-05-10T09:45:28;3.23;;;2.43;;
18576;SDS011;9418;52.694;13.294;2023-05-10T09:47:57;3.13;;;2.60;;
18576;SDS011;9418;52.694;13.294;2023-05-10T09:50:24;7.13;;;2.40;;
18576;SDS011;9418;52.694;13.294;2023-05-10T09:52:52;5.90;;;2.43;;
18576;SDS011;9418;52.694;13.294;2023-05-10T09:55:22;5.80;;;3.20;;
18576;SDS011;9418;52.694;13.294;2023-05-10T09:57:58;2.83;;;2.37;;
18576;SDS011;9418;52.694;13.294;2023-05-10T10:00:26;4.30;;;2.30;;
18576;SDS011;9418;52.694;13.294;2023-05-10T10:02:54;4.30;;;1.97;;
18576;SDS011;9418;52.694;13.294;2023-05-10T10:05:27;2.60;;;2.50;;
18576;SDS011;9418;52.694;13.294;2023-05-10T10:07:54;4.83;;;2.33;;
18576;SDS011;9418;52.694;13.294;2023-05-10T10:10:22;6.73;;;2.40;;
18576;SDS011;9418;52.694;13.294;2023-05-10T10:12:49;4.10;;;2.97;;
18576;SDS011;9418;52.694;13.294;2023-05-10T10:15:16;7.27;;;2.50;;
18576;SDS011;9418;52.694;13.294;2023-05-10T10:17:45;9.10;;;2.87;;
18576;SDS011;9418;52.694;13.294;2023-05-10T10:20:12;3.33;;;2.40;;
18576;SDS011;9418;52.694;13.294;2023-05-10T10:22:39;3.27;;;3.00;;
18576;SDS011;9418;52.694;13.294;2023-05-10T10:25:06;6.40;;;3.17;;
18576;SDS011;9418;52.694;13.294;2023-05-10T10:27:37;3.93;;;3.17;;
18576;SDS011;9418;52.694;13.294;2023-05-10T10:30:12;2.80;;;2.60;;
18576;SDS011;9418;52.694;13.294;2023-05-10T10:33:06;2.70;;;2.20;;
18576;SDS011;9418;52.694;13.294;2023-05-10T10:35:53;5.27;;;2.67;;
18576;SDS011;9418;52.694;13.294;2023-05-10T10:38:21;3.37;;;2.70;;
18576;SDS011;9418;52.694;13.294;2023-05-10T10:40:48;2.73;;;2.63;;
18576;SDS011;9418;52.694;13.294;2023-05-10T10:43:28;2.47;;;2.27;;
18576;SDS011;9418;52.694;13.294;2023-05-10T10:46:14;6.87;;;2.43;;
18576;SDS011;9418;52.694;13.294;2023-05-10T10:48:48;3.43;;;2.63;;
18576;SDS011;9418;52.694;13.294;2023-05-10T10:51:16;2.83;;;2.63;;
18576;SDS011;9418;52.694;13.294;2023-05-10T10:53:43;7.47;;;2.80;;
18576;SDS011;9418;52.694;13.294;2023-05-10T10:56:10;14.43;;;2.60;;
18576;SDS011;9418;52.694;13.294;2023-05-10T10:58:38;3.57;;;3.10;;
18576;SDS011;9418;52.694;13.294;2023-05-10T11:01:09;9.63;;;2.43;;
18576;SDS011;9418;52.694;13.294;2023-05-10T11:03:37;4.40;;;2.47;;
18576;SDS011;9418;52.694;13.294;2023-05-10T11:06:05;2.10;;;2.00;;
18576;SDS011;9418;52.694;13.294;2023-05-10T11:08:33;2.40;;;2.20;;
18576;SDS011;9418;52.694;13.294;2023-05-10T11:11:06;2.53;;;2.33;;
18576;SDS011;9418;52.694;13.294;2023-05-10T11:13:34;6.50;;;2.30;;
18576;SDS011;9418;52.694;13.294;2023-05-10T11:16:14;2.83;;;2.43;;
18576;SDS011;9418;52.694;13.294;2023-05-10T11:21:44;4.00;;;2.37;;
18576;SDS011;9418;52.694;13.294;2023-05-10T11:24:13;3.27;;;2.23;;
18576;SDS011;9418;52.694;13.294;2023-05-10T11:26:40;12.40;;;2.20;;
18576;SDS011;9418;52.694;13.294;2023-05-10T11:29:08;1.83;;;1.73;;
18576;SDS011;9418;52.694;13.294;2023-05-10T11:31:34;3.07;;;2.10;;
18576;SDS011;9418;52.694;13.294;2023-05-10T11:34:07;4.03;;;2.17;;
18576;SDS011;9418;52.694;13.294;2023-05-10T11:36:41;8.57;;;2.70;;
18576;SDS011;9418;52.694;13.294;2023-05-10T11:39:08;2.43;;;2.33;;
18576;SDS011;9418;52.694;13.294;2023-05-10T11:41:36;6.00;;;2.10;;
18576;SDS011;9418;52.694;13.294;2023-05-10T11:44:03;3.47;;;1.97;;
18576;SDS011;9418;52.694;13.294;2023-05-10T11:46:29;8.03;;;2.43;;
18576;SDS011;9418;52.694;13.294;2023-05-10T11:48:57;6.37;;;2.47;;
18576;SDS011;9418;52.694;13.294;2023-05-10T11:51:27;2.40;;;2.27;;
18576;SDS011;9418;52.694;13.294;2023-05-10T11:53:55;3.53;;;1.97;;
18576;SDS011;9418;52.694;13.294;2023-05-10T11:56:22;5.13;;;2.30;;
18576;SDS011;9418;52.694;13.294;2023-05-10T11:58:54;4.07;;;2.20;;
18576;SDS011;9418;52.694;13.294;2023-05-10T12:01:22;10.10;;;2.10;;
18576;SDS011;9418;52.694;13.294;2023-05-10T12:03:49;2.47;;;2.27;;
18576;SDS011;9418;52.694;13.294;2023-05-10T12:06:17;4.13;;;2.20;;
18576;SDS011;9418;52.694;13.294;2023-05-10T12:08:44;2.00;;;1.87;;
18576;SDS011;9418;52.694;13.294;2023-05-10T12:11:14;8.30;;;2.40;;
18576;SDS011;9418;52.694;13.294;2023-05-10T12:13:41;2.73;;;2.50;;
18576;SDS011;9418;52.694;13.294;2023-05-10T12:16:14;32.27;;;2.43;;
18576;SDS011;9418;52.694;13.294;2023-05-10T12:18:42;3.37;;;2.50;;
18576;SDS011;9418;52.694;13.294;2023-05-10T12:21:09;4.83;;;2.20;;
18576;SDS011;9418;52.694;13.294;2023-05-10T12:23:36;2.30;;;2.17;;
18576;SDS011;9418;52.694;13.294;2023-05-10T12:26:03;2.37;;;2.27;;
18576;SDS011;9418;52.694;13.294;2023-05-10T12:28:32;2.40;;;2.20;;
18576;SDS011;9418;52.694;13.294;2023-05-10T12:30:59;2.00;;;1.90;;
18576;SDS011;9418;52.694;13.294;2023-05-10T12:33:26;1.97;;;1.87;;
18576;SDS011;9418;52.694;13.294;2023-05-10T12:35:53;4.20;;;2.57;;
18576;SDS011;9418;52.694;13.294;2023-05-10T12:38:24;3.17;;;2.47;;
18576;SDS011;9418;52.694;13.294;2023-05-10T12:40:54;4.53;;;2.30;;
18576;SDS011;9418;52.694;13.294;2023-05-10T12:43:21;3.63;;;2.43;;
18576;SDS011;9418;52.694;13.294;2023-05-10T12:45:48;5.60;;;2.07;;
18576;SDS011;9418;52.694;13.294;2023-05-10T12:48:15;7.73;;;2.37;;
18576;SDS011;9418;52.694;13.294;2023-05-10T12:50:42;13.00;;;2.47;;
18576;SDS011;9418;52.694;13.294;2023-05-10T12:53:08;11.33;;;3.00;;
18576;SDS011;9418;52.694;13.294;2023-05-10T12:55:35;11.50;;;2.20;;
18576;SDS011;9418;52.694;13.294;2023-05-10T12:58:01;2.40;;;1.90;;
18576;SDS011;9418;52.694;13.294;2023-05-10T13:00:28;3.93;;;2.30;;
18576;SDS011;9418;52.694;13.294;2023-05-10T13:02:56;6.93;;;1.70;;
18576;SDS011;9418;52.694;13.294;2023-05-10T13:05:22;6.03;;;2.37;;
18576;SDS011;9418;52.694;13.294;2023-05-10T13:07:49;11.97;;;2.80;;
18576;SDS011;9418;52.694;13.294;2023-05-10T13:10:15;9.23;;;2.27;;
18576;SDS011;9418;52.694;13.294;2023-05-10T13:12:42;9.60;;;2.60;;
18576;SDS011;9418;52.694;13.294;2023-05-10T13:15:09;2.50;;;1.80;;
18576;SDS011;9418;52.694;13.294;2023-05-10T13:17:36;2.80;;;1.97;;
18576;SDS011;9418;52.694;13.294;2023-05-10T13:20:05;3.17;;;2.10;;
18576;SDS011;9418;52.694;13.294;2023-05-10T13:22:32;8.77;;;2.10;;
18576;SDS011;9418;52.694;13.294;2023-05-10T13:24:59;6.60;;;2.57;;
18576;SDS011;9418;52.694;13.294;2023-05-10T13:27:25;5.53;;;2.40;;
18576;SDS011;9418;52.694;13.294;2023-05-10T13:29:52;10.33;;;3.47;;
18576;SDS011;9418;52.694;13.294;2023-05-10T13:32:19;5.63;;;3.57;;
18576;SDS011;9418;52.694;13.294;2023-05-10T13:34:46;4.50;;;2.80;;
18576;SDS011;9418;52.694;13.294;2023-05-10T13:37:14;2.90;;;2.60;;
18576;SDS011;9418;52.694;13.294;2023-05-10T13:39:41;5.17;;;1.87;;
18576;SDS011;9418;52.694;13.294;2023-05-10T13:42:07;5.23;;;2.17;;
18576;SDS011;9418;52.694;13.294;2023-05-10T13:44:34;5.70;;;2.20;;
18576;SDS011;9418;52.694;13.294;2023-05-10T13:47:01;3.80;;;2.17;;
18576;SDS011;9418;52.694;13.294;2023-05-10T13:49:27;4.40;;;2.00;;
18576;SDS011;9418;52.694;13.294;2023-05-10T13:51:54;3.83;;;2.67;;
18576;SDS011;9418;52.694;13.294;2023-05-10T13:54:22;2.30;;;2.10;;
18576;SDS011;9418;52.694;13.294;2023-05-10T13:56:50;3.83;;;1.73;;
18576;SDS011;9418;52.694;13.294;2023-05-10T13:59:16;2.13;;;1.80;;
18576;SDS011;9418;52.694;13.294;2023-05-10T14:01:43;4.53;;;1.90;;
18576;SDS011;9418;52.694;13.294;2023-05-10T14:04:09;10.23;;;2.43;;
18576;SDS011;9418;52.694;13.294;2023-05-10T14:06:37;3.63;;;2.20;;
18576;SDS011;9418;52.694;13.294;2023-05-10T14:09:03;2.43;;;2.07;;
18576;SDS011;9418;52.694;13.294;2023-05-10T14:11:31;2.30;;;2.00;;
18576;SDS011;9418;52.694;13.294;2023-05-10T14:13:58;2.40;;;2.10;;
18576;SDS011;9418;52.694;13.294;2023-05-10T14:16:24;10.03;;;2.10;;
18576;SDS011;9418;52.694;13.294;2023-05-10T14:18:51;2.50;;;1.93;;
18576;SDS011;9418;52.694;13.294;2023-05-10T14:21:18;6.50;;;2.40;;
18576;SDS011;9418;52.694;13.294;2023-05-10T14:23:45;2.83;;;1.90;;
18576;SDS011;9418;52.694;13.294;2023-05-10T14:26:11;6.20;;;2.30;;
18576;SDS011;9418;52.694;13.294;2023-05-10T14:28:39;6.83;;;2.20;;
18576;SDS011;9418;52.694;13.294;2023-05-10T14:31:06;5.70;;;2.30;;
18576;SDS011;9418;52.694;13.294;2023-05-10T14:33:32;2.63;;;2.17;;
18576;SDS011;9418;52.694;13.294;2023-05-10T14:35:59;2.83;;;1.90;;
18576;SDS011;9418;52.694;13.294;2023-05-10T14:38:25;6.97;;;2.00;;
18576;SDS011;9418;52.694;13.294;2023-05-10T14:40:52;4.00;;;2.00;;
18576;SDS011;9418;52.694;13.294;2023-05-10T14:43:19;9.93;;;2.40;;
18576;SDS011;9418;52.694;13.294;2023-05-10T14:45:47;3.27;;;2.10;;
18576;SDS011;9418;52.694;13.294;2023-05-10T14:48:13;2.07;;;1.80;;
18576;SDS011;9418;52.694;13.294;2023-05-10T14:50:42;2.70;;;2.20;;
18576;SDS011;9418;52.694;13.294;2023-05-10T14:53:08;3.80;;;2.03;;
18576;SDS011;9418;52.694;13.294;2023-05-10T14:55:35;5.23;;;1.87;;